page 5290 of 1003806 registered users

eBook PostsUsers

  1. 0slashfall6 registered @ 2013-01-07 18:10:48, last login @ 2013-01-07 18:10:48
  2. 0france49tenor registered @ 2013-01-07 18:11:13, last login @ 2013-01-07 18:11:13
  3. 0branchstreet1 registered @ 2013-01-07 18:14:16, last login @ 2013-01-07 18:14:16
  4. 0ramienephew77 registered @ 2013-01-07 18:14:23, last login @ 2013-01-07 18:14:23
  5. 0leadpoet8 registered @ 2013-01-07 18:14:30, last login @ 2013-01-07 18:14:30
  6. 0sandcough8 registered @ 2013-01-07 18:14:41, last login @ 2013-01-07 18:14:41
  7. 0gram61ear registered @ 2013-01-07 18:15:29, last login @ 2013-01-07 18:15:29
  8. 0hockeydew3 registered @ 2013-01-07 18:15:46, last login @ 2013-01-07 18:15:46
  9. 0karate7night registered @ 2013-01-07 18:16:31, last login @ 2013-01-07 18:16:31
  10. 0butane4ant registered @ 2013-01-07 18:16:40, last login @ 2013-01-07 18:57:17
  11. 0form1camel registered @ 2013-01-07 18:17:47, last login @ 2013-01-07 18:17:47
  12. 0nelson78fritz registered @ 2013-01-07 18:17:48, last login @ 2013-01-07 18:17:48
  13. 0parcelneedle7 registered @ 2013-01-07 18:19:10, last login @ 2013-01-07 18:19:10
  14. 0bell03dinghy registered @ 2013-01-07 18:19:41, last login @ 2013-01-07 18:19:41
  15. 0budgetnoise46 registered @ 2013-01-07 18:20:03, last login @ 2013-01-07 18:20:03
  16. 0cyclebutton10 registered @ 2013-01-07 18:21:18, last login @ 2013-01-07 18:21:18
  17. 0evhkcxqct registered @ 2013-01-07 18:21:33, last login @ 2013-01-07 18:21:33
  18. 0horseplane60 registered @ 2013-01-07 18:21:59, last login @ 2013-01-07 18:21:59
  19. 0floodappeal6 registered @ 2013-01-07 18:22:09, last login @ 2013-01-07 18:22:09
  20. 0europe0energy registered @ 2013-01-07 18:22:37, last login @ 2013-01-07 18:22:37
  21. 0childjaguar4 registered @ 2013-01-07 18:24:21, last login @ 2013-01-07 18:24:21
  22. 0lunch9yew registered @ 2013-01-07 18:25:02, last login @ 2013-01-07 18:25:02
  23. 0juicefind3 registered @ 2013-01-07 18:26:23, last login @ 2013-01-07 18:26:23
  24. 0rain1tights registered @ 2013-01-07 18:27:33, last login @ 2013-01-07 18:27:33
  25. 0syria7shock registered @ 2013-01-07 18:29:12, last login @ 2013-01-07 18:29:12
  26. 0touchtruck33 registered @ 2013-01-07 18:29:25, last login @ 2013-01-07 18:29:25
  27. 0crop86bangle registered @ 2013-01-07 18:30:28, last login @ 2013-01-07 18:30:28
  28. 0swingbrown8 registered @ 2013-01-07 18:30:43, last login @ 2013-01-07 18:58:21
  29. 0tubamosque26 registered @ 2013-01-07 18:31:34, last login @ 2013-01-07 19:00:57
  30. 0slimemimosa6 registered @ 2013-01-07 18:31:45, last login @ 2013-01-07 18:31:45
  31. 0saw80taiwan registered @ 2013-01-07 18:32:40, last login @ 2013-01-07 18:59:25
  32. 0chiefsilver73 registered @ 2013-01-07 18:33:52, last login @ 2013-01-07 18:33:52
  33. 0memory16park registered @ 2013-01-07 18:34:46, last login @ 2013-01-07 18:34:46
  34. 0fog2diving registered @ 2013-01-07 18:34:46, last login @ 2013-01-07 18:34:46
  35. 0ocean5breath registered @ 2013-01-07 18:34:58, last login @ 2013-01-07 18:34:58
  36. 0cuban22shock registered @ 2013-01-07 18:35:12, last login @ 2013-01-07 18:35:12
  37. 0zebracord8 registered @ 2013-01-07 18:36:07, last login @ 2013-01-07 18:36:07
  38. 0niecegolf9 registered @ 2013-01-07 18:36:57, last login @ 2013-01-07 18:36:57
  39. 0financial53 registered @ 2013-01-07 18:37:10, last login @ 2013-01-07 19:00:34
  40. 0pilotact3 registered @ 2013-01-07 18:37:46, last login @ 2013-01-07 18:37:46
  41. 0bellweapon12 registered @ 2013-01-07 18:39:05, last login @ 2013-01-07 18:39:05
  42. 0bongo8cup registered @ 2013-01-07 18:39:11, last login @ 2013-01-07 18:39:11
  43. 0quitwool10 registered @ 2013-01-07 18:39:46, last login @ 2013-01-07 18:39:46
  44. 0jelly27stem registered @ 2013-01-07 18:41:50, last login @ 2013-01-07 18:41:50
  45. 0fox59cow registered @ 2013-01-07 18:42:28, last login @ 2013-01-07 18:42:28
  46. 0creekden14 registered @ 2013-01-07 18:42:29, last login @ 2013-01-07 18:42:29
  47. 0santa7egypt registered @ 2013-01-07 18:42:32, last login @ 2013-01-07 18:42:32
  48. 0beaver4bell registered @ 2013-01-07 18:42:55, last login @ 2013-01-07 18:42:55
  49. 0panda91pastor registered @ 2013-01-07 18:43:37, last login @ 2013-01-07 18:43:37
  50. 0wealth6house registered @ 2013-01-07 18:44:25, last login @ 2013-01-07 18:44:25
  51. 0trunkdegree2 registered @ 2013-01-07 18:44:35, last login @ 2013-01-07 18:44:35
  52. 0breathsuit42 registered @ 2013-01-07 18:46:10, last login @ 2013-01-07 18:46:10
  53. 0doublestitch16 registered @ 2013-01-07 18:46:15, last login @ 2013-01-07 18:46:15
  54. 0MoormanMLL2 registered @ 2013-01-07 18:46:43, last login @ 2013-01-07 18:46:43
  55. 0dahliabroker5 registered @ 2013-01-07 18:47:40, last login @ 2013-01-07 18:47:40
  56. 0Danishmasterro registered @ 2013-01-07 18:50:08, last login @ 2013-01-07 18:50:08
  57. 0wax80toe registered @ 2013-01-07 18:50:35, last login @ 2013-01-07 18:50:35
  58. 0rule6belief registered @ 2013-01-07 18:51:28, last login @ 2013-01-07 18:51:28
  59. 0courtgarden7 registered @ 2013-01-07 18:52:37, last login @ 2013-01-07 18:52:37
  60. 0banjoplow2 registered @ 2013-01-07 18:52:57, last login @ 2013-01-07 18:52:57
  61. 0galaxynote2 registered @ 2013-01-07 18:54:42, last login @ 2013-01-07 18:54:42
  62. 0trialeditor9 registered @ 2013-01-07 18:54:59, last login @ 2013-01-07 18:54:59
  63. 0dock8peanut registered @ 2013-01-07 18:55:32, last login @ 2013-01-07 18:55:32
  64. 0restmark12 registered @ 2013-01-07 18:55:44, last login @ 2013-01-07 18:55:44
  65. 0boxknee0 registered @ 2013-01-07 18:56:15, last login @ 2013-01-07 18:56:15
  66. 0tatika registered @ 2013-01-07 18:57:23, last login @ 2013-01-07 18:58:09
  67. 0iran1spring registered @ 2013-01-07 18:57:52, last login @ 2013-01-07 18:57:52
  68. 0death67taurus registered @ 2013-01-07 18:58:57, last login @ 2013-01-07 18:58:57
  69. 0noodle9drawer registered @ 2013-01-07 19:03:34, last login @ 2013-01-07 19:35:04
  70. 0wrenmath4 registered @ 2013-01-07 19:03:34, last login @ 2013-01-07 19:03:34
  71. 0NesterMLM5 registered @ 2013-01-07 19:04:24, last login @ 2013-01-07 19:04:24
  72. 0chalk56bow registered @ 2013-01-07 19:04:54, last login @ 2013-01-07 19:04:54
  73. 0closetlunch1 registered @ 2013-01-07 19:05:35, last login @ 2013-01-07 19:05:35
  74. 0wound7cause registered @ 2013-01-07 19:05:56, last login @ 2013-01-07 19:05:56
  75. 0commaday9 registered @ 2013-01-07 19:08:27, last login @ 2013-01-07 19:53:09
  76. 0sarahbely registered @ 2013-01-07 19:09:24, last login @ 2013-01-07 19:09:24
  77. 0pest6tempo registered @ 2013-01-07 19:10:27, last login @ 2013-01-07 19:10:27
  78. 0mother40bomber registered @ 2013-01-07 19:10:48, last login @ 2013-01-07 19:10:48
  79. 0rate24pilot registered @ 2013-01-07 19:11:14, last login @ 2013-01-07 19:52:10
  80. 0laughdonkey8 registered @ 2013-01-07 19:12:29, last login @ 2013-01-07 19:54:52
  81. 0hawkcheque25 registered @ 2013-01-07 19:13:17, last login @ 2013-01-07 19:13:17
  82. 0hotorder4 registered @ 2013-01-07 19:13:37, last login @ 2013-01-07 19:17:22
  83. 0pasteoval6 registered @ 2013-01-07 19:14:18, last login @ 2013-01-07 19:14:18
  84. 0voyage7avenue registered @ 2013-01-07 19:16:43, last login @ 2013-01-07 19:16:43
  85. 0cementbronze08 registered @ 2013-01-07 19:17:15, last login @ 2013-01-07 19:17:15
  86. 0saltstem3 registered @ 2013-01-07 19:17:43, last login @ 2013-01-07 19:17:43
  87. 0tennis1tray registered @ 2013-01-07 19:19:10, last login @ 2013-01-07 19:19:10
  88. 0flypansy9 registered @ 2013-01-07 19:19:35, last login @ 2013-01-07 19:19:35
  89. 0startstorm1 registered @ 2013-01-07 19:19:48, last login @ 2013-01-07 19:19:48
  90. 0Wilaeavery registered @ 2013-01-07 19:22:24, last login @ 2013-01-07 19:22:24
  91. 0clerk24expert registered @ 2013-01-07 19:23:36, last login @ 2013-01-07 19:23:36
  92. 0coinshell43 registered @ 2013-01-07 19:24:08, last login @ 2013-01-07 19:24:08
  93. 0rahmatfadli registered @ 2013-01-07 19:24:12, last login @ 2013-01-07 19:24:12
  94. 0cd14candle registered @ 2013-01-07 19:25:12, last login @ 2013-01-07 19:25:12
  95. 0bus67freon registered @ 2013-01-07 19:26:25, last login @ 2013-01-07 19:26:25
  96. 0melody4peony registered @ 2013-01-07 19:26:54, last login @ 2013-01-07 19:26:54
  97. 0cheekpunch81 registered @ 2013-01-07 19:27:10, last login @ 2013-01-07 19:27:10
  98. 0lisashelf0 registered @ 2013-01-07 19:27:53, last login @ 2013-01-07 19:27:53
  99. 0butanewillow1 registered @ 2013-01-07 19:28:21, last login @ 2013-01-07 19:28:21
  100. 0thing9song registered @ 2013-01-07 19:30:06, last login @ 2013-01-07 19:30:06
  101. 0cellarcoast71 registered @ 2013-01-07 19:30:09, last login @ 2013-01-07 19:30:09

More...

[5300] [5299] [5298] [5297] [5296] [5295] [5294] [5293] [5292] [5291] [5290] [5289] [5288] [5287] [5286] [5285] [5284] [5283] [5282] [5281] ...[1]
Back to Top